createdAt,value
2022-08-25T00:00:20.335Z,31.01
2022-08-25T00:02:56.248Z,30.84
2022-08-25T00:05:29.440Z,31.01
2022-08-25T00:08:00.588Z,31.30
2022-08-25T00:10:28.678Z,32.15
2022-08-25T00:12:57.971Z,31.88
2022-08-25T00:15:25.923Z,32.20
2022-08-25T00:17:53.797Z,31.93
2022-08-25T00:20:22.422Z,32.50
2022-08-25T00:22:50.464Z,32.55
2022-08-25T00:25:18.836Z,32.46
2022-08-25T00:27:47.591Z,32.29
2022-08-25T00:30:17.363Z,32.80
2022-08-25T00:32:50.497Z,32.94
2022-08-25T00:35:25.704Z,32.67
2022-08-25T00:37:53.566Z,33.09
2022-08-25T00:40:21.653Z,33.10
2022-08-25T00:42:49.673Z,33.54
2022-08-25T00:45:18.884Z,33.83
2022-08-25T00:47:46.808Z,33.70
2022-08-25T00:50:14.612Z,33.93
2022-08-25T00:52:44.452Z,33.83
2022-08-25T00:55:14.402Z,33.63
2022-08-25T00:57:44.216Z,33.89
2022-08-25T01:00:15.185Z,34.25
2022-08-25T01:02:45.082Z,34.23
2022-08-25T01:05:13.322Z,34.42
2022-08-25T01:07:41.378Z,34.40
2022-08-25T01:10:13.451Z,34.21
2022-08-25T01:12:41.278Z,34.47
2022-08-25T01:15:10.560Z,34.41
2022-08-25T01:17:46.222Z,34.52
2022-08-25T01:20:15.569Z,34.70
2022-08-25T01:22:44.923Z,34.52
2022-08-25T01:25:26.430Z,34.71
2022-08-25T01:27:54.297Z,34.35
2022-08-25T01:30:23.460Z,34.82
2022-08-25T01:32:51.285Z,34.85
2022-08-25T01:35:19.639Z,35.05
2022-08-25T01:37:49.106Z,34.98
2022-08-25T01:40:17.122Z,34.96
2022-08-25T01:42:49.407Z,35.12
2022-08-25T01:45:17.478Z,35.05
2022-08-25T01:47:45.295Z,35.04
2022-08-25T01:50:13.644Z,35.23
2022-08-25T01:52:51.403Z,35.25
2022-08-25T01:55:19.288Z,35.22
2022-08-25T01:57:47.396Z,35.29
2022-08-25T02:00:16.283Z,35.40
2022-08-25T02:02:44.268Z,35.52
2022-08-25T02:05:13.265Z,35.36
2022-08-25T02:07:42.312Z,35.64
2022-08-25T02:10:12.252Z,35.49
2022-08-25T02:12:40.216Z,35.63
2022-08-25T02:15:09.165Z,35.50
2022-08-25T02:17:37.127Z,35.81
2022-08-25T02:20:05.699Z,35.81
2022-08-25T02:22:33.531Z,35.93
2022-08-25T02:25:01.549Z,36.38
2022-08-25T02:27:30.723Z,36.26
2022-08-25T02:29:58.620Z,36.20
2022-08-25T02:32:26.443Z,36.40
2022-08-25T02:34:54.340Z,36.69
2022-08-25T02:37:22.306Z,36.33
2022-08-25T02:39:50.287Z,36.11
2022-08-25T02:42:18.148Z,36.54
2022-08-25T02:44:48.143Z,36.32
2022-08-25T02:47:16.574Z,36.79
2022-08-25T02:49:44.643Z,36.75
2022-08-25T02:52:13.179Z,36.85
2022-08-25T02:54:41.103Z,37.09
2022-08-25T02:57:10.568Z,37.18
2022-08-25T02:59:39.232Z,37.17
2022-08-25T03:02:08.432Z,37.15
2022-08-25T03:04:36.547Z,37.38
2022-08-25T03:07:05.623Z,37.38
2022-08-25T03:09:34.295Z,37.56
2022-08-25T03:12:06.302Z,37.52
2022-08-25T03:14:34.263Z,37.52
2022-08-25T03:17:02.382Z,37.78
2022-08-25T03:19:31.801Z,37.71
2022-08-25T03:21:59.744Z,37.76
2022-08-25T03:24:28.012Z,38.27
2022-08-25T03:26:55.834Z,38.03
2022-08-25T03:29:24.396Z,38.02
2022-08-25T03:31:52.487Z,38.33
2022-08-25T03:34:20.593Z,38.37
2022-08-25T03:36:51.302Z,38.54
2022-08-25T03:39:19.827Z,38.60
2022-08-25T03:41:48.184Z,38.65
2022-08-25T03:44:16.126Z,38.85
2022-08-25T03:46:46.640Z,38.44
2022-08-25T03:49:17.543Z,38.87
2022-08-25T03:51:47.371Z,38.85
2022-08-25T03:54:16.755Z,39.08
2022-08-25T03:56:44.701Z,38.90
2022-08-25T03:59:12.631Z,39.03
2022-08-25T04:01:41.326Z,39.07
2022-08-25T04:04:09.725Z,39.48
2022-08-25T04:06:37.562Z,39.48
2022-08-25T04:09:08.517Z,39.57
2022-08-25T04:11:37.770Z,39.59
2022-08-25T04:14:05.921Z,40.05
2022-08-25T04:16:35.011Z,39.69
2022-08-25T04:19:04.933Z,40.03
2022-08-25T04:21:33.092Z,39.98
2022-08-25T04:24:01.041Z,40.42
2022-08-25T04:26:29.936Z,40.05
2022-08-25T04:29:00.026Z,40.40
2022-08-25T04:31:28.096Z,40.32
2022-08-25T04:33:56.150Z,40.48
2022-08-25T04:36:23.953Z,40.75
2022-08-25T04:38:51.847Z,40.59
2022-08-25T04:41:20.990Z,41.00
2022-08-25T04:43:49.291Z,40.83
2022-08-25T04:46:20.583Z,40.88
2022-08-25T04:48:52.242Z,41.02
2022-08-25T04:51:21.246Z,41.21
2022-08-25T04:53:49.166Z,41.34
2022-08-25T04:56:18.178Z,41.43
2022-08-25T04:58:46.845Z,41.03
2022-08-25T05:01:17.199Z,41.36
2022-08-25T05:03:47.137Z,41.45
2022-08-25T05:06:16.229Z,41.22
2022-08-25T05:08:45.836Z,41.49
2022-08-25T05:11:16.563Z,41.63
2022-08-25T05:13:51.408Z,41.43
2022-08-25T05:16:20.080Z,41.85
2022-08-25T05:18:49.404Z,41.86
2022-08-25T05:21:19.224Z,41.74
2022-08-25T05:23:47.604Z,42.20
2022-08-25T05:28:43.235Z,42.36
2022-08-25T05:31:12.220Z,42.28
2022-08-25T05:33:40.418Z,42.18
2022-08-25T05:36:10.544Z,42.41
2022-08-25T05:38:39.781Z,42.38
2022-08-25T05:41:10.279Z,41.74
2022-08-25T05:43:41.515Z,41.84
2022-08-25T05:46:09.681Z,41.73
2022-08-25T05:48:55.018Z,42.19
2022-08-25T05:51:24.442Z,42.34
2022-08-25T05:53:56.702Z,41.93
2022-08-25T05:56:24.550Z,42.05
2022-08-25T05:58:52.497Z,42.05
2022-08-25T06:01:39.045Z,41.96
2022-08-25T06:04:06.949Z,42.38
2022-08-25T06:06:36.314Z,42.57
2022-08-25T06:09:08.479Z,41.98
2022-08-25T06:11:39.808Z,41.81
2022-08-25T06:14:08.395Z,41.19
2022-08-25T06:16:36.462Z,40.97
2022-08-25T06:19:04.396Z,40.38
2022-08-25T06:21:32.295Z,40.15
2022-08-25T06:24:01.538Z,39.06
2022-08-25T06:26:29.473Z,39.07
2022-08-25T06:28:57.305Z,37.56
2022-08-25T06:31:25.274Z,36.12
2022-08-25T06:33:53.201Z,35.85
2022-08-25T06:36:21.117Z,34.02
2022-08-25T06:38:49.237Z,32.62
2022-08-25T06:41:18.511Z,32.24
2022-08-25T06:43:49.843Z,31.94
2022-08-25T06:46:20.136Z,31.76
2022-08-25T06:48:48.011Z,30.28
2022-08-25T06:51:17.068Z,29.08
2022-08-25T06:53:45.110Z,27.98
2022-08-25T06:56:13.167Z,27.67
2022-08-25T06:58:42.349Z,27.37
2022-08-25T07:01:15.828Z,27.43
2022-08-25T07:03:48.236Z,25.98
2022-08-25T07:06:18.278Z,26.62
2022-08-25T07:08:46.613Z,26.04
2022-08-25T07:11:16.584Z,25.30
2022-08-25T07:13:46.784Z,24.96
2022-08-25T07:16:15.723Z,24.70
2022-08-25T07:18:44.290Z,23.60
2022-08-25T07:21:12.357Z,23.75
2022-08-25T07:23:40.411Z,23.44
2022-08-25T07:26:21.282Z,22.82
2022-08-25T07:28:59.745Z,22.32
2022-08-25T07:31:29.705Z,21.57
2022-08-25T07:34:16.479Z,21.49
2022-08-25T07:36:44.943Z,22.14
2022-08-25T07:39:12.971Z,21.99
2022-08-25T07:41:41.844Z,21.55
2022-08-25T07:44:11.967Z,21.18
2022-08-25T07:46:39.920Z,21.23
2022-08-25T07:49:16.763Z,20.65
2022-08-25T07:52:04.033Z,20.98
2022-08-25T07:54:34.076Z,20.50
2022-08-25T07:57:03.701Z,20.19
2022-08-25T07:59:38.941Z,19.51
2022-08-25T08:02:08.943Z,19.59
2022-08-25T08:04:42.538Z,19.17
2022-08-25T08:07:11.976Z,18.64
2022-08-25T08:09:40.231Z,18.46
2022-08-25T08:12:09.509Z,18.71
2022-08-25T08:14:39.647Z,18.70
2022-08-25T08:17:13.310Z,18.30
2022-08-25T08:19:44.802Z,17.75
2022-08-25T08:22:15.538Z,17.46
2022-08-25T08:24:56.230Z,18.07
2022-08-25T08:27:24.567Z,17.59
2022-08-25T08:29:54.353Z,17.70
2022-08-25T08:32:25.233Z,17.36
2022-08-25T08:35:03.436Z,16.88
2022-08-25T08:37:31.449Z,16.65
2022-08-25T08:40:03.227Z,16.05
2022-08-25T08:42:52.974Z,16.05
2022-08-25T08:45:27.743Z,15.66
2022-08-25T08:48:22.615Z,15.00
2022-08-25T08:50:57.519Z,15.38
2022-08-25T08:53:28.574Z,14.64
2022-08-25T08:56:04.229Z,15.15
2022-08-25T08:58:36.778Z,14.73
2022-08-25T09:01:06.114Z,14.66
2022-08-25T09:03:36.049Z,14.94
2022-08-25T09:06:09.997Z,14.81
2022-08-25T09:08:39.046Z,13.90
2022-08-25T09:11:18.899Z,14.58
2022-08-25T09:13:59.362Z,14.20
2022-08-25T09:16:45.399Z,13.58
2022-08-25T09:19:23.451Z,13.49
2022-08-25T09:21:53.628Z,14.06
2022-08-25T09:24:28.143Z,13.34
2022-08-25T09:27:03.437Z,13.23
2022-08-25T09:29:35.013Z,13.01
2022-08-25T09:32:04.244Z,12.91
2022-08-25T09:34:34.420Z,12.82
2022-08-25T09:37:03.363Z,12.54
2022-08-25T09:39:32.657Z,12.35
2022-08-25T09:42:01.019Z,12.23
2022-08-25T09:44:31.446Z,12.15
2022-08-25T09:47:08.305Z,11.94
2022-08-25T09:49:40.312Z,10.84
2022-08-25T09:52:32.912Z,11.22
2022-08-25T09:55:02.586Z,11.27
2022-08-25T09:57:35.683Z,11.10
2022-08-25T10:00:15.085Z,10.02
2022-08-25T10:02:44.603Z,10.57
2022-08-25T10:05:38.126Z,10.17
2022-08-25T10:08:14.550Z,9.89
2022-08-25T10:10:46.215Z,9.28
2022-08-25T10:13:15.244Z,9.67
2022-08-25T10:15:43.409Z,9.66
2022-08-25T10:18:25.633Z,9.02
2022-08-25T10:21:07.594Z,9.69
2022-08-25T10:23:45.386Z,9.79
2022-08-25T10:26:21.838Z,10.20
2022-08-25T10:29:00.339Z,9.71
2022-08-25T10:31:33.123Z,9.29
2022-08-25T10:34:11.183Z,8.60
2022-08-25T10:36:46.956Z,8.64
2022-08-25T10:39:34.307Z,9.04
2022-08-25T10:42:07.755Z,8.81
2022-08-25T10:45:01.107Z,8.94
2022-08-25T10:47:54.281Z,8.45
2022-08-25T10:50:29.394Z,8.46
2022-08-25T10:53:19.286Z,8.23
2022-08-25T10:55:53.164Z,7.14
2022-08-25T10:58:24.600Z,7.45
2022-08-25T11:01:02.741Z,7.20
2022-08-25T11:03:41.280Z,7.45
2022-08-25T11:06:12.627Z,7.23
2022-08-25T11:08:41.975Z,7.02
2022-08-25T11:11:12.197Z,6.60
2022-08-25T11:13:42.995Z,6.68
2022-08-25T11:16:17.400Z,6.61
2022-08-25T11:18:50.903Z,6.10
2022-08-25T11:21:22.164Z,5.82
2022-08-25T11:23:53.414Z,5.85
2022-08-25T11:26:28.881Z,5.98
2022-08-25T11:31:32.939Z,6.08
2022-08-25T11:34:00.802Z,6.02
2022-08-25T11:36:32.158Z,5.79
2022-08-25T11:39:09.187Z,6.26
2022-08-25T11:41:41.339Z,6.18
2022-08-25T11:44:19.879Z,6.76
2022-08-25T11:46:59.117Z,6.50
2022-08-25T11:49:40.822Z,7.88
2022-08-25T11:52:31.147Z,8.01
2022-08-25T11:55:06.578Z,8.52
2022-08-25T11:57:37.276Z,9.20
2022-08-25T12:00:15.150Z,10.18
2022-08-25T12:02:44.484Z,10.99
2022-08-25T12:05:29.010Z,11.47
2022-08-25T12:08:22.644Z,12.17
2022-08-25T12:10:59.036Z,12.50
2022-08-25T12:13:44.035Z,12.78
2022-08-25T12:16:38.811Z,13.97
2022-08-25T12:19:28.665Z,14.77
2022-08-25T12:21:57.780Z,15.12
2022-08-25T12:24:48.237Z,15.52
2022-08-25T12:27:23.385Z,16.33
2022-08-25T12:29:52.321Z,15.36
2022-08-25T12:32:38.281Z,15.35
2022-08-25T12:35:26.565Z,16.16
2022-08-25T12:38:01.066Z,16.20
2022-08-25T12:40:34.578Z,16.34
2022-08-25T12:43:11.440Z,16.56
2022-08-25T12:45:43.878Z,17.31
2022-08-25T12:48:42.948Z,17.33
2022-08-25T12:51:17.178Z,16.73
2022-08-25T12:53:46.553Z,17.40
2022-08-25T12:56:23.506Z,17.91
2022-08-25T12:59:02.236Z,17.25
2022-08-25T13:01:38.136Z,17.71
2022-08-25T13:04:21.559Z,17.78
2022-08-25T13:07:02.989Z,17.27
2022-08-25T13:10:16.870Z,18.34
2022-08-25T13:12:48.880Z,17.97
2022-08-25T13:15:26.294Z,17.98
2022-08-25T13:17:54.285Z,18.44
2022-08-25T13:20:25.313Z,18.07
2022-08-25T13:22:58.699Z,17.81
2022-08-25T13:25:32.159Z,17.65
2022-08-25T13:28:04.211Z,17.23
2022-08-25T13:30:34.289Z,17.14
2022-08-25T13:33:12.838Z,17.96
2022-08-25T13:35:41.209Z,17.59
2022-08-25T13:38:15.005Z,18.24
2022-08-25T13:40:44.226Z,17.82
2022-08-25T13:43:15.046Z,18.05
2022-08-25T13:45:44.141Z,18.34
2022-08-25T13:48:22.765Z,18.34
2022-08-25T13:50:52.099Z,18.85
2022-08-25T13:53:23.981Z,17.84
2022-08-25T13:55:53.175Z,18.01
2022-08-25T13:58:39.018Z,17.93
2022-08-25T14:01:22.214Z,17.23
2022-08-25T14:04:23.066Z,17.63
2022-08-25T14:07:05.581Z,18.11
2022-08-25T14:09:39.522Z,17.47
2022-08-25T14:12:09.318Z,17.87
2022-08-25T14:14:38.787Z,17.63
2022-08-25T14:17:22.341Z,17.67
2022-08-25T14:19:55.740Z,17.83
2022-08-25T14:22:23.729Z,17.24
2022-08-25T14:24:53.711Z,17.80
2022-08-25T14:27:21.776Z,17.35
2022-08-25T14:29:52.949Z,17.40
2022-08-25T14:32:21.005Z,16.96
2022-08-25T14:34:48.909Z,16.92
2022-08-25T14:37:17.709Z,17.26
2022-08-25T14:39:46.932Z,17.24
2022-08-25T14:42:16.770Z,17.87
2022-08-25T14:44:45.794Z,17.39
2022-08-25T14:47:15.033Z,17.20
2022-08-25T14:49:45.811Z,17.37
2022-08-25T14:52:17.580Z,17.38
2022-08-25T14:54:45.698Z,17.50
2022-08-25T14:57:13.939Z,16.84
2022-08-25T14:59:43.141Z,17.05
2022-08-25T15:02:13.093Z,17.49
2022-08-25T15:04:49.312Z,17.53
2022-08-25T15:07:37.356Z,17.25
2022-08-25T15:10:08.714Z,17.39
2022-08-25T15:12:47.678Z,17.85
2022-08-25T15:15:16.274Z,17.59
2022-08-25T15:17:46.735Z,18.56
2022-08-25T15:20:19.116Z,17.73
2022-08-25T15:22:48.145Z,18.32
2022-08-25T15:25:16.787Z,18.14
2022-08-25T15:27:46.962Z,17.86
2022-08-25T15:30:15.573Z,18.23
2022-08-25T15:32:43.564Z,18.28
2022-08-25T15:35:11.708Z,18.20
2022-08-25T15:37:44.645Z,18.54
2022-08-25T15:40:13.092Z,18.42
2022-08-25T15:42:42.831Z,18.46
2022-08-25T15:45:14.385Z,18.46
2022-08-25T15:47:42.296Z,18.17
2022-08-25T15:50:12.510Z,18.68
2022-08-25T15:52:46.445Z,18.74
2022-08-25T15:55:17.393Z,18.69
2022-08-25T15:57:46.327Z,18.78
2022-08-25T16:00:16.545Z,18.67
2022-08-25T16:02:46.356Z,18.44
2022-08-25T16:05:16.490Z,18.52
2022-08-25T16:07:46.038Z,18.87
2022-08-25T16:10:23.872Z,18.75
2022-08-25T16:12:53.228Z,19.12
2022-08-25T16:15:23.781Z,19.19
2022-08-25T16:17:52.187Z,19.52
2022-08-25T16:20:20.817Z,19.10
2022-08-25T16:22:51.310Z,19.54
2022-08-25T16:25:19.418Z,19.49
2022-08-25T16:27:49.143Z,19.40
2022-08-25T16:30:18.128Z,19.10
2022-08-25T16:32:46.610Z,19.12
2022-08-25T16:35:14.615Z,18.63
2022-08-25T16:37:42.680Z,19.18
2022-08-25T16:40:14.591Z,18.94
2022-08-25T16:42:42.911Z,19.21
2022-08-25T16:45:12.660Z,19.34
2022-08-25T16:47:42.755Z,19.22
2022-08-25T16:50:11.269Z,19.42
2022-08-25T16:52:56.728Z,19.36
2022-08-25T16:55:26.308Z,19.54
2022-08-25T16:57:54.556Z,19.53
2022-08-25T17:00:25.425Z,19.23
2022-08-25T17:02:56.038Z,19.04
2022-08-25T17:05:23.975Z,19.11
2022-08-25T17:08:06.302Z,19.10
2022-08-25T17:10:36.915Z,19.26
2022-08-25T17:13:04.859Z,19.15
2022-08-25T17:15:34.271Z,19.41
2022-08-25T17:18:02.304Z,19.64
2022-08-25T17:20:32.722Z,20.26
2022-08-25T17:23:02.701Z,20.72
2022-08-25T17:25:41.510Z,21.29
2022-08-25T17:28:11.918Z,21.43
2022-08-25T17:30:43.513Z,22.06
2022-08-25T17:33:11.833Z,22.47
2022-08-25T17:35:40.505Z,22.70
2022-08-25T17:38:08.730Z,22.63
2022-08-25T17:40:37.458Z,23.28
2022-08-25T17:43:05.922Z,23.47
2022-08-25T17:45:37.440Z,23.57
2022-08-25T17:48:10.147Z,23.81
2022-08-25T17:50:39.234Z,23.94
2022-08-25T17:53:07.320Z,24.49
2022-08-25T17:55:38.639Z,24.14
2022-08-25T17:58:06.685Z,24.26
2022-08-25T18:00:34.832Z,24.82
2022-08-25T18:03:04.263Z,24.49
2022-08-25T18:05:35.075Z,24.69
2022-08-25T18:08:03.523Z,25.02
2022-08-25T18:10:31.707Z,25.29
2022-08-25T18:13:02.122Z,25.39
2022-08-25T18:15:33.967Z,25.79
2022-08-25T18:18:04.494Z,26.20
2022-08-25T18:20:34.294Z,25.99
2022-08-25T18:23:05.835Z,26.53
2022-08-25T18:25:37.722Z,25.78
2022-08-25T18:28:10.558Z,26.49
2022-08-25T18:30:38.846Z,26.74
2022-08-25T18:33:07.562Z,27.03
2022-08-25T18:35:37.992Z,26.95
2022-08-25T18:38:23.509Z,26.78
2022-08-25T18:40:55.968Z,27.32
2022-08-25T18:43:24.031Z,27.64
2022-08-25T18:45:52.424Z,27.09
2022-08-25T18:48:23.651Z,28.14
2022-08-25T18:50:56.737Z,27.45
2022-08-25T18:53:30.330Z,28.48
2022-08-25T18:56:05.559Z,28.89
2022-08-25T18:58:33.470Z,28.43
2022-08-25T19:01:01.579Z,28.71
2022-08-25T19:03:30.089Z,28.77
2022-08-25T19:06:00.130Z,28.80
2022-08-25T19:08:28.754Z,28.99
2022-08-25T19:10:56.919Z,29.63
2022-08-25T19:13:25.403Z,29.48
2022-08-25T19:15:53.564Z,29.87
2022-08-25T19:18:26.086Z,29.79
2022-08-25T19:20:58.504Z,29.99
2022-08-25T19:23:28.415Z,30.51
2022-08-25T19:25:56.618Z,30.06
2022-08-25T19:28:25.965Z,30.67
2022-08-25T19:30:54.218Z,30.52
2022-08-25T19:33:42.835Z,30.85
2022-08-25T19:36:10.122Z,30.65
2022-08-25T19:38:44.043Z,31.06
2022-08-25T19:41:14.665Z,31.56
2022-08-25T19:43:55.406Z,31.47
2022-08-25T19:46:25.107Z,31.88
2022-08-25T19:48:53.087Z,31.94
2022-08-25T19:51:21.872Z,31.86
2022-08-25T19:53:54.783Z,32.37
2022-08-25T19:56:24.431Z,32.38
2022-08-25T19:58:52.378Z,32.80
2022-08-25T20:01:20.655Z,32.93
2022-08-25T20:03:48.935Z,32.77
2022-08-25T20:06:17.851Z,33.12
2022-08-25T20:08:45.980Z,33.28
2022-08-25T20:11:15.308Z,33.69
2022-08-25T20:13:43.193Z,33.43
2022-08-25T20:16:12.174Z,33.91
2022-08-25T20:18:40.221Z,33.96
2022-08-25T20:21:08.536Z,33.63
2022-08-25T20:23:53.961Z,34.15
2022-08-25T20:26:26.931Z,34.26
2022-08-25T20:28:55.159Z,34.39
2022-08-25T20:31:23.180Z,34.59
2022-08-25T20:33:51.555Z,34.52
2022-08-25T20:36:20.534Z,34.93
2022-08-25T20:38:48.854Z,35.11
2022-08-25T20:41:17.954Z,35.08
2022-08-25T20:43:47.932Z,35.23
2022-08-25T20:46:16.384Z,34.98
2022-08-25T20:48:44.798Z,35.27
2022-08-25T20:51:13.078Z,35.02
2022-08-25T20:53:42.442Z,35.76
2022-08-25T20:56:10.599Z,35.55
2022-08-25T20:58:38.788Z,35.82
2022-08-25T21:01:10.079Z,35.65
2022-08-25T21:03:38.073Z,35.99
2022-08-25T21:06:08.761Z,36.52
2022-08-25T21:08:38.612Z,36.19
2022-08-25T21:11:13.059Z,36.21
2022-08-25T21:13:41.041Z,36.48
2022-08-25T21:16:10.512Z,36.99
2022-08-25T21:18:39.144Z,36.70
2022-08-25T21:21:15.148Z,37.18
2022-08-25T21:23:45.893Z,36.74
2022-08-25T21:26:14.539Z,37.02
2022-08-25T21:28:47.605Z,37.40
2022-08-25T21:31:18.207Z,36.93
2022-08-25T21:33:46.598Z,37.55
2022-08-25T21:36:19.982Z,37.48
2022-08-25T21:38:49.480Z,37.15
2022-08-25T21:41:19.585Z,37.22
2022-08-25T21:44:29.649Z,37.54
2022-08-25T21:47:21.311Z,37.43
2022-08-25T21:49:50.096Z,37.11
2022-08-25T21:52:18.306Z,37.16
2022-08-25T21:54:46.402Z,37.49
2022-08-25T21:57:14.642Z,37.55
2022-08-25T21:59:43.757Z,37.79
2022-08-25T22:02:13.012Z,37.46
2022-08-25T22:04:44.616Z,37.59
2022-08-25T22:07:12.551Z,37.57
2022-08-25T22:09:42.288Z,37.63
2022-08-25T22:15:17.793Z,37.25
2022-08-25T22:17:46.023Z,37.39
2022-08-25T22:20:17.790Z,37.63
2022-08-25T22:22:45.624Z,38.09
2022-08-25T22:25:14.056Z,37.63
2022-08-25T22:27:42.650Z,37.81
2022-08-25T22:30:11.521Z,38.11
2022-08-25T22:32:39.555Z,38.32
2022-08-25T22:35:08.334Z,38.31
2022-08-25T22:37:39.079Z,38.00
2022-08-25T22:40:09.049Z,37.96
2022-08-25T22:42:37.137Z,38.06
2022-08-25T22:45:06.173Z,37.99
2022-08-25T22:47:34.232Z,38.65
2022-08-25T22:50:02.055Z,38.08
2022-08-25T22:52:33.639Z,38.45
2022-08-25T22:55:03.474Z,38.46
2022-08-25T22:57:31.474Z,38.36
2022-08-25T22:59:59.806Z,38.66
2022-08-25T23:02:30.245Z,38.32
2022-08-25T23:05:00.205Z,38.77
2022-08-25T23:07:29.206Z,38.22
2022-08-25T23:09:57.021Z,38.80
2022-08-25T23:12:26.404Z,38.64
2022-08-25T23:14:54.606Z,38.81
2022-08-25T23:17:22.419Z,38.70
2022-08-25T23:19:50.505Z,39.11
2022-08-25T23:22:17.619Z,38.93
2022-08-25T23:24:48.164Z,39.25
2022-08-25T23:27:17.198Z,39.30
2022-08-25T23:29:48.729Z,39.23
2022-08-25T23:32:17.110Z,39.03
2022-08-25T23:34:47.133Z,39.05
2022-08-25T23:37:15.192Z,39.25
2022-08-25T23:39:45.623Z,39.32
2022-08-25T23:42:13.551Z,39.10
2022-08-25T23:44:41.588Z,39.19
2022-08-25T23:47:12.056Z,38.97
2022-08-25T23:49:40.231Z,39.30
2022-08-25T23:52:08.119Z,39.47
2022-08-25T23:54:36.319Z,39.32
2022-08-25T23:57:06.742Z,38.85
2022-08-25T23:59:35.422Z,39.30
